Mc Intosh, New Mexico
Current Conditions -  °F | °C
As of 10:15 AM on Friday 28 Nov 2014 (Local Time) from K0E0 Reporting Station
Clear Clear  
Wind Chill: 46°   Ceiling: Unl
Heat Index: 46°   Visibility: 10mi
Dew Point: 25°   Wind: 0mph
Humidity: 44%   Direction: NA
Pressure: 30.28"   Gusts: NA
Location:  34.864°N, 106.052°W
Report Text: K0E0 281715Z AUTO 00000KT 10SM CLR 08/M04 A3028 RMK AO2 T00781039
Loading
Personal Weather Stations






























Interactive Weather Map New forecast layout! Learn more

10-Day Weather Forecast

Advertisements
Track Severe Weather on mobile